createdAt,value
2022-11-06T00:00:15.208Z,96.85
2022-11-06T00:01:15.219Z,96.65
2022-11-06T00:02:20.462Z,97.06
2022-11-06T00:03:15.233Z,96.65
2022-11-06T00:04:15.192Z,96.95
2022-11-06T00:05:15.188Z,97.06
2022-11-06T00:06:15.182Z,96.75
2022-11-06T00:07:15.180Z,96.65
2022-11-06T00:08:15.552Z,96.75
2022-11-06T00:09:15.180Z,96.85
2022-11-06T00:10:15.171Z,96.85
2022-11-06T00:11:15.171Z,96.75
2022-11-06T00:12:15.163Z,96.95
2022-11-06T00:13:15.157Z,96.65
2022-11-06T00:14:15.154Z,96.65
2022-11-06T00:15:15.154Z,96.95
2022-11-06T00:16:15.154Z,96.75
2022-11-06T00:17:15.167Z,96.85
2022-11-06T00:18:15.560Z,96.44
2022-11-06T00:19:15.137Z,97.16
2022-11-06T00:20:15.133Z,96.65
2022-11-06T00:21:15.134Z,96.34
2022-11-06T00:22:15.131Z,96.55
2022-11-06T00:23:15.131Z,96.85
2022-11-06T00:24:15.121Z,97.00
2022-11-06T00:25:15.116Z,96.85
2022-11-06T00:26:15.113Z,96.69
2022-11-06T00:27:15.110Z,96.80
2022-11-06T00:28:15.503Z,96.59
2022-11-06T00:29:15.118Z,96.59
2022-11-06T00:30:15.100Z,96.90
2022-11-06T00:31:15.097Z,96.69
2022-11-06T00:32:15.095Z,97.00
2022-11-06T00:33:15.114Z,97.10
2022-11-06T00:34:15.083Z,96.90
2022-11-06T00:35:15.084Z,96.95
2022-11-06T00:36:15.077Z,97.41
2022-11-06T00:37:15.076Z,97.00
2022-11-06T00:38:15.530Z,97.31
2022-11-06T00:39:15.070Z,97.10
2022-11-06T00:40:15.065Z,97.31
2022-11-06T00:41:15.064Z,96.80
2022-11-06T00:42:15.065Z,97.00
2022-11-06T00:43:15.059Z,97.52
2022-11-06T00:44:15.050Z,97.41
2022-11-06T00:45:15.048Z,96.80
2022-11-06T00:46:15.051Z,96.75
2022-11-06T00:47:15.042Z,97.10
2022-11-06T00:48:15.357Z,97.16
2022-11-06T00:49:15.056Z,97.10
2022-11-06T00:50:15.030Z,97.31
2022-11-06T00:51:15.032Z,97.16
2022-11-06T00:52:15.025Z,97.06
2022-11-06T00:53:15.022Z,97.16
2022-11-06T00:54:15.017Z,96.95
2022-11-06T00:55:15.013Z,96.90
2022-11-06T00:56:15.011Z,97.10
2022-11-06T00:57:15.008Z,96.90
2022-11-06T00:58:15.323Z,96.59
2022-11-06T00:59:15.002Z,96.69
2022-11-06T01:00:15.001Z,96.80
2022-11-06T01:01:15.043Z,96.80
2022-11-06T01:02:15.174Z,97.00
2022-11-06T01:03:14.986Z,96.84
2022-11-06T01:04:14.984Z,96.90
2022-11-06T01:05:15.001Z,96.90
2022-11-06T01:06:14.975Z,96.80
2022-11-06T01:07:14.979Z,96.69
2022-11-06T01:08:15.375Z,96.90
2022-11-06T01:09:14.964Z,96.69
2022-11-06T01:10:14.963Z,96.90
2022-11-06T01:11:14.961Z,96.90
2022-11-06T01:12:15.119Z,97.15
2022-11-06T01:13:14.953Z,97.41
2022-11-06T01:14:14.953Z,96.84
2022-11-06T01:15:14.946Z,96.64
2022-11-06T01:16:14.937Z,96.80
2022-11-06T01:17:14.941Z,97.10
2022-11-06T01:18:15.292Z,96.73
2022-11-06T01:19:14.930Z,96.64
2022-11-06T01:20:14.926Z,97.05
2022-11-06T01:21:14.940Z,96.94
2022-11-06T01:22:14.916Z,96.80
2022-11-06T01:23:14.919Z,96.73
2022-11-06T01:24:14.948Z,96.73
2022-11-06T01:25:14.909Z,96.43
2022-11-06T01:26:14.903Z,96.73
2022-11-06T01:27:30.317Z,96.64
2022-11-06T01:28:15.147Z,96.73
2022-11-06T01:29:14.894Z,96.53
2022-11-06T01:30:14.889Z,96.64
2022-11-06T01:31:14.886Z,96.73
2022-11-06T01:32:14.893Z,96.59
2022-11-06T01:33:14.883Z,96.84
2022-11-06T01:34:14.875Z,96.69
2022-11-06T01:35:14.871Z,96.80
2022-11-06T01:36:15.068Z,96.28
2022-11-06T01:37:15.274Z,96.73
2022-11-06T01:38:15.140Z,96.84
2022-11-06T01:39:14.865Z,96.39
2022-11-06T01:40:14.853Z,96.48
2022-11-06T01:41:14.850Z,96.48
2022-11-06T01:42:14.845Z,96.59
2022-11-06T01:43:14.842Z,96.39
2022-11-06T01:44:14.840Z,96.69
2022-11-06T01:45:14.834Z,96.39
2022-11-06T01:46:14.831Z,96.28
2022-11-06T01:47:14.833Z,96.39
2022-11-06T01:48:15.145Z,95.87
2022-11-06T01:49:14.823Z,96.39
2022-11-06T01:50:14.820Z,96.48
2022-11-06T01:51:14.817Z,96.22
2022-11-06T01:52:14.812Z,96.02
2022-11-06T01:53:14.826Z,96.08
2022-11-06T01:54:14.804Z,96.59
2022-11-06T01:55:14.803Z,96.39
2022-11-06T01:56:14.797Z,95.87
2022-11-06T01:57:14.798Z,96.39
2022-11-06T01:58:15.072Z,96.08
2022-11-06T01:59:14.789Z,95.81
2022-11-06T02:00:14.785Z,95.92
2022-11-06T02:01:14.780Z,96.43
2022-11-06T02:02:14.986Z,96.33
2022-11-06T02:03:14.775Z,96.02
2022-11-06T02:04:14.770Z,96.33
2022-11-06T02:05:14.765Z,96.33
2022-11-06T02:06:14.759Z,96.43
2022-11-06T02:07:14.757Z,96.39
2022-11-06T02:08:15.297Z,96.43
2022-11-06T02:09:14.771Z,96.53
2022-11-06T02:10:14.749Z,96.80
2022-11-06T02:11:14.746Z,96.59
2022-11-06T02:12:14.740Z,96.28
2022-11-06T02:13:14.737Z,96.33
2022-11-06T02:14:14.733Z,96.64
2022-11-06T02:15:14.731Z,95.92
2022-11-06T02:16:14.733Z,96.12
2022-11-06T02:17:14.727Z,96.22
2022-11-06T02:18:15.110Z,96.33
2022-11-06T02:19:14.716Z,96.02
2022-11-06T02:20:14.710Z,96.33
2022-11-06T02:21:14.710Z,96.53
2022-11-06T02:22:14.704Z,96.53
2022-11-06T02:23:14.701Z,97.05
2022-11-06T02:24:14.697Z,96.84
2022-11-06T02:25:14.708Z,96.22
2022-11-06T02:26:14.697Z,96.53
2022-11-06T02:27:14.689Z,96.64
2022-11-06T02:28:14.955Z,96.53
2022-11-06T02:29:14.680Z,96.53
2022-11-06T02:30:14.683Z,96.33
2022-11-06T02:31:14.680Z,96.12
2022-11-06T02:32:14.672Z,96.33
2022-11-06T02:33:14.663Z,96.22
2022-11-06T02:34:14.663Z,96.12
2022-11-06T02:35:14.655Z,96.47
2022-11-06T02:36:14.700Z,96.33
2022-11-06T02:37:14.650Z,96.33
2022-11-06T02:38:15.016Z,96.53
2022-11-06T02:39:14.641Z,96.37
2022-11-06T02:40:14.635Z,96.43
2022-11-06T02:41:14.659Z,96.84
2022-11-06T02:42:14.630Z,96.73
2022-11-06T02:43:14.628Z,96.73
2022-11-06T02:44:14.625Z,96.64
2022-11-06T02:45:14.626Z,96.78
2022-11-06T02:46:14.618Z,96.53
2022-11-06T02:47:14.618Z,96.43
2022-11-06T02:48:15.095Z,96.53
2022-11-06T02:49:14.610Z,96.33
2022-11-06T02:50:14.607Z,96.68
2022-11-06T02:51:14.603Z,96.53
2022-11-06T02:52:14.596Z,96.22
2022-11-06T02:53:14.590Z,96.43
2022-11-06T02:54:14.591Z,96.27
2022-11-06T02:55:14.586Z,96.73
2022-11-06T02:56:14.578Z,96.84
2022-11-06T02:57:14.598Z,96.94
2022-11-06T02:58:14.888Z,96.94
2022-11-06T02:59:14.579Z,96.94
2022-11-06T03:00:14.565Z,96.73
2022-11-06T03:01:14.649Z,97.05
2022-11-06T03:02:14.720Z,96.84
2022-11-06T03:03:14.560Z,96.43
2022-11-06T03:04:14.553Z,96.84
2022-11-06T03:05:14.552Z,96.84
2022-11-06T03:06:14.545Z,96.84
2022-11-06T03:07:14.545Z,96.22
2022-11-06T03:08:15.033Z,96.33
2022-11-06T03:09:14.535Z,96.53
2022-11-06T03:10:14.530Z,96.22
2022-11-06T03:11:14.529Z,96.43
2022-11-06T03:12:14.522Z,96.22
2022-11-06T03:13:14.538Z,96.43
2022-11-06T03:14:14.517Z,96.22
2022-11-06T03:15:14.514Z,95.92
2022-11-06T03:16:14.511Z,96.12
2022-11-06T03:17:14.506Z,96.43
2022-11-06T03:18:14.879Z,96.22
2022-11-06T03:19:14.496Z,96.33
2022-11-06T03:20:14.495Z,96.43
2022-11-06T03:21:14.489Z,95.50
2022-11-06T03:22:14.491Z,95.96
2022-11-06T03:23:14.489Z,95.30
2022-11-06T03:24:14.478Z,95.45
2022-11-06T03:25:14.475Z,95.65
2022-11-06T03:26:14.482Z,95.86
2022-11-06T03:27:14.469Z,95.75
2022-11-06T03:28:15.019Z,95.86
2022-11-06T03:29:14.479Z,95.86
2022-11-06T03:30:16.727Z,96.17
2022-11-06T03:31:14.453Z,96.43
2022-11-06T03:32:14.457Z,96.47
2022-11-06T03:33:14.444Z,96.37
2022-11-06T03:34:14.455Z,95.71
2022-11-06T03:35:14.439Z,96.37
2022-11-06T03:36:14.786Z,96.12
2022-11-06T03:37:14.437Z,96.47
2022-11-06T03:38:14.745Z,96.06
2022-11-06T03:39:14.425Z,96.06
2022-11-06T03:40:14.432Z,95.96
2022-11-06T03:41:14.418Z,95.96
2022-11-06T03:42:14.412Z,96.27
2022-11-06T03:43:14.409Z,96.47
2022-11-06T03:44:14.412Z,95.96
2022-11-06T03:45:14.421Z,96.27
2022-11-06T03:46:14.399Z,96.58
2022-11-06T03:47:14.393Z,96.78
2022-11-06T03:48:14.862Z,96.17
2022-11-06T03:49:14.388Z,96.37
2022-11-06T03:50:14.388Z,96.17
2022-11-06T03:51:14.386Z,96.78
2022-11-06T03:52:14.379Z,96.78
2022-11-06T03:53:14.372Z,96.17
2022-11-06T03:54:14.370Z,96.47
2022-11-06T03:55:14.367Z,95.96
2022-11-06T03:56:14.364Z,96.47
2022-11-06T03:57:14.364Z,96.47
2022-11-06T03:58:14.818Z,96.00
2022-11-06T03:59:14.444Z,96.17
2022-11-06T04:00:14.350Z,96.68
2022-11-06T04:01:14.362Z,96.68
2022-11-06T04:02:14.495Z,96.37
2022-11-06T04:03:14.334Z,96.42
2022-11-06T04:04:14.338Z,96.37
2022-11-06T04:05:14.327Z,96.58
2022-11-06T04:06:14.330Z,96.99
2022-11-06T04:07:14.322Z,96.83
2022-11-06T04:08:14.709Z,96.89
2022-11-06T04:09:14.316Z,96.31
2022-11-06T04:10:14.322Z,96.31
2022-11-06T04:11:14.306Z,96.72
2022-11-06T04:12:14.303Z,96.21
2022-11-06T04:13:14.299Z,96.42
2022-11-06T04:14:14.296Z,96.31
2022-11-06T04:15:14.291Z,96.72
2022-11-06T04:16:14.291Z,96.83
2022-11-06T04:17:14.302Z,96.62
2022-11-06T04:18:14.774Z,96.62
2022-11-06T04:19:14.281Z,96.62
2022-11-06T04:20:14.274Z,96.11
2022-11-06T04:21:14.278Z,96.62
2022-11-06T04:22:14.267Z,96.00
2022-11-06T04:23:14.263Z,96.62
2022-11-06T04:24:14.263Z,96.42
2022-11-06T04:25:14.253Z,96.52
2022-11-06T04:26:14.256Z,95.90
2022-11-06T04:27:14.248Z,96.31
2022-11-06T04:28:14.640Z,96.21
2022-11-06T04:29:14.239Z,96.11
2022-11-06T04:30:14.244Z,96.42
2022-11-06T04:31:14.236Z,96.42
2022-11-06T04:32:14.230Z,96.62
2022-11-06T04:33:14.260Z,96.11
2022-11-06T04:34:14.224Z,96.42
2022-11-06T04:35:14.221Z,96.31
2022-11-06T04:36:14.566Z,96.42
2022-11-06T04:37:14.208Z,96.52
2022-11-06T04:38:14.679Z,96.42
2022-11-06T04:39:14.203Z,96.21
2022-11-06T04:40:14.199Z,96.42
2022-11-06T04:41:14.197Z,96.52
2022-11-06T04:42:14.194Z,97.03
2022-11-06T04:43:14.188Z,96.93
2022-11-06T04:44:14.184Z,96.83
2022-11-06T04:45:14.178Z,96.42
2022-11-06T04:46:14.176Z,96.93
2022-11-06T04:47:14.171Z,96.83
2022-11-06T04:48:14.623Z,96.72
2022-11-06T04:49:14.184Z,96.31
2022-11-06T04:50:14.163Z,96.00
2022-11-06T04:51:14.157Z,96.31
2022-11-06T04:52:14.155Z,96.42
2022-11-06T04:53:14.149Z,96.52
2022-11-06T04:54:14.151Z,96.72
2022-11-06T04:55:14.145Z,96.83
2022-11-06T04:56:16.486Z,96.42
2022-11-06T04:57:14.137Z,96.31
2022-11-06T04:58:14.499Z,96.72
2022-11-06T04:59:14.140Z,96.11
2022-11-06T05:00:14.128Z,96.52
2022-11-06T05:01:14.266Z,96.42
2022-11-06T05:02:14.242Z,96.31
2022-11-06T05:03:14.113Z,96.52
2022-11-06T05:04:14.115Z,96.62
2022-11-06T05:05:14.229Z,96.62
2022-11-06T05:06:14.100Z,96.31
2022-11-06T05:07:14.098Z,96.52
2022-11-06T05:08:14.484Z,96.62
2022-11-06T05:09:14.090Z,96.42
2022-11-06T05:10:14.086Z,96.62
2022-11-06T05:11:14.085Z,96.83
2022-11-06T05:12:14.080Z,96.00
2022-11-06T05:13:14.079Z,96.31
2022-11-06T05:14:14.070Z,96.52
2022-11-06T05:15:14.067Z,96.31
2022-11-06T05:16:14.065Z,96.62
2022-11-06T05:17:14.059Z,97.14
2022-11-06T05:18:14.488Z,96.52
2022-11-06T05:19:14.053Z,96.72
2022-11-06T05:20:14.052Z,96.52
2022-11-06T05:21:14.064Z,96.62
2022-11-06T05:22:14.048Z,96.31
2022-11-06T05:23:14.039Z,96.31
2022-11-06T05:24:14.033Z,96.52
2022-11-06T05:25:14.027Z,96.42
2022-11-06T05:26:14.022Z,95.90
2022-11-06T05:27:14.019Z,96.31
2022-11-06T05:28:14.463Z,96.62
2022-11-06T05:29:14.010Z,96.62
2022-11-06T05:30:14.010Z,96.52
2022-11-06T05:31:14.008Z,96.21
2022-11-06T05:32:13.999Z,96.31
2022-11-06T05:33:13.996Z,96.62
2022-11-06T05:34:13.997Z,96.31
2022-11-06T05:35:13.991Z,96.31
2022-11-06T05:36:13.986Z,96.52
2022-11-06T05:37:13.998Z,96.11
2022-11-06T05:38:14.357Z,96.42
2022-11-06T05:39:13.980Z,96.52
2022-11-06T05:40:13.974Z,96.31
2022-11-06T05:41:13.972Z,96.52
2022-11-06T05:42:13.966Z,96.21
2022-11-06T05:43:13.966Z,96.52
2022-11-06T05:44:13.957Z,96.72
2022-11-06T05:45:13.952Z,96.21
2022-11-06T05:46:42.328Z,96.52
2022-11-06T05:47:13.948Z,96.21
2022-11-06T05:48:14.332Z,96.42
2022-11-06T05:49:13.936Z,96.11
2022-11-06T05:50:13.935Z,96.42
2022-11-06T05:51:13.933Z,96.52
2022-11-06T05:52:13.925Z,96.31
2022-11-06T05:53:13.972Z,96.42
2022-11-06T05:54:13.918Z,96.52
2022-11-06T05:55:15.348Z,96.31
2022-11-06T05:56:13.913Z,96.52
2022-11-06T05:57:13.912Z,96.52
2022-11-06T05:58:14.252Z,96.11
2022-11-06T05:59:13.914Z,96.72
2022-11-06T06:00:13.897Z,96.21
2022-11-06T06:01:13.897Z,96.31
2022-11-06T06:02:14.179Z,96.42
2022-11-06T06:03:14.012Z,96.11
2022-11-06T06:04:13.891Z,96.31
2022-11-06T06:05:13.878Z,96.21
2022-11-06T06:06:13.873Z,96.31
2022-11-06T06:07:13.874Z,96.52
2022-11-06T06:08:14.211Z,96.52
2022-11-06T06:09:13.878Z,96.37
2022-11-06T06:10:13.863Z,96.52
2022-11-06T06:11:13.850Z,96.42
2022-11-06T06:12:13.847Z,96.21
2022-11-06T06:13:13.847Z,96.21
2022-11-06T06:14:13.842Z,96.31
2022-11-06T06:15:13.835Z,96.21
2022-11-06T06:16:13.837Z,96.11
2022-11-06T06:17:13.832Z,96.62
2022-11-06T06:18:14.161Z,96.62
2022-11-06T06:19:13.819Z,96.72
2022-11-06T06:20:13.818Z,96.11
2022-11-06T06:21:13.817Z,96.42
2022-11-06T06:22:13.809Z,96.00
2022-11-06T06:23:13.807Z,96.00
2022-11-06T06:24:13.860Z,96.21
2022-11-06T06:25:22.365Z,95.90
2022-11-06T06:26:13.795Z,96.00
2022-11-06T06:27:13.789Z,96.52
2022-11-06T06:28:14.106Z,96.21
2022-11-06T06:29:13.804Z,96.21
2022-11-06T06:30:13.781Z,96.62
2022-11-06T06:31:13.774Z,96.21
2022-11-06T06:32:13.773Z,96.42
2022-11-06T06:33:13.766Z,96.31
2022-11-06T06:34:13.766Z,96.21
2022-11-06T06:35:13.759Z,96.21
2022-11-06T06:36:13.757Z,96.68
2022-11-06T06:37:17.699Z,96.31
2022-11-06T06:38:14.091Z,96.47
2022-11-06T06:39:13.753Z,96.52
2022-11-06T06:40:13.740Z,96.58
2022-11-06T06:41:13.757Z,96.58
2022-11-06T06:42:13.735Z,96.78
2022-11-06T06:43:13.727Z,96.83
2022-11-06T06:44:13.732Z,96.68
2022-11-06T06:45:13.725Z,96.47
2022-11-06T06:46:13.723Z,96.58
2022-11-06T06:47:13.718Z,96.47
2022-11-06T06:48:14.049Z,96.21
2022-11-06T06:49:13.715Z,96.17
2022-11-06T06:50:13.706Z,96.37
2022-11-06T06:51:13.697Z,96.17
2022-11-06T06:52:13.702Z,96.11
2022-11-06T06:53:13.687Z,96.58
2022-11-06T06:54:13.689Z,96.42
2022-11-06T06:55:13.683Z,95.96
2022-11-06T06:56:13.676Z,95.75
2022-11-06T06:57:13.692Z,96.27
2022-11-06T06:58:17.873Z,96.47
2022-11-06T06:59:13.664Z,96.17
2022-11-06T07:00:13.662Z,96.17
2022-11-06T07:01:13.750Z,96.37
2022-11-06T07:02:13.748Z,96.17
2022-11-06T07:03:13.650Z,96.58
2022-11-06T07:04:13.644Z,96.37
2022-11-06T07:05:13.640Z,96.37
2022-11-06T07:06:13.641Z,96.17
2022-11-06T07:07:13.634Z,96.27
2022-11-06T07:08:13.915Z,96.58
2022-11-06T07:09:13.628Z,95.65
2022-11-06T07:10:13.624Z,95.92
2022-11-06T07:11:13.616Z,96.06
2022-11-06T07:12:13.615Z,96.33
2022-11-06T07:13:14.107Z,96.06
2022-11-06T07:14:13.605Z,95.92
2022-11-06T07:15:13.605Z,95.96
2022-11-06T07:16:13.597Z,96.06
2022-11-06T07:17:13.594Z,96.06
2022-11-06T07:18:13.812Z,95.65
2022-11-06T07:19:13.644Z,96.12
2022-11-06T07:20:13.600Z,96.22
2022-11-06T07:21:13.582Z,96.22
2022-11-06T07:22:13.575Z,95.71
2022-11-06T07:23:13.571Z,95.81
2022-11-06T07:24:13.567Z,96.12
2022-11-06T07:25:13.565Z,95.81
2022-11-06T07:26:13.561Z,95.92
2022-11-06T07:27:13.555Z,96.02
2022-11-06T07:28:13.729Z,96.22
2022-11-06T07:29:13.663Z,96.22
2022-11-06T07:30:13.548Z,96.22
2022-11-06T07:31:13.540Z,96.12
2022-11-06T07:32:13.541Z,95.61
2022-11-06T07:33:13.542Z,95.81
2022-11-06T07:34:13.528Z,95.81
2022-11-06T07:35:13.527Z,95.92
2022-11-06T07:36:13.520Z,96.33
2022-11-06T07:37:13.521Z,96.12
2022-11-06T07:38:13.774Z,95.71
2022-11-06T07:39:13.512Z,95.81
2022-11-06T07:40:13.506Z,96.08
2022-11-06T07:41:13.504Z,96.18
2022-11-06T07:42:13.500Z,96.08
2022-11-06T07:43:13.496Z,96.08
2022-11-06T07:44:13.489Z,96.48
2022-11-06T07:45:13.596Z,96.59
2022-11-06T07:46:13.485Z,95.87
2022-11-06T07:47:13.480Z,96.48
2022-11-06T07:48:13.759Z,96.18
2022-11-06T07:49:13.476Z,96.65
2022-11-06T07:50:13.466Z,96.18
2022-11-06T07:51:13.481Z,95.97
2022-11-06T07:52:13.471Z,96.14
2022-11-06T07:53:13.815Z,96.34
2022-11-06T07:54:13.455Z,96.03
2022-11-06T07:55:13.452Z,95.93
2022-11-06T07:56:13.450Z,95.68
2022-11-06T07:57:13.445Z,95.93
2022-11-06T07:58:13.720Z,95.01
2022-11-06T07:59:13.434Z,94.70
2022-11-06T08:00:13.436Z,95.47
2022-11-06T08:01:17.937Z,95.27
2022-11-06T08:02:13.655Z,95.47
2022-11-06T08:03:13.423Z,95.57
2022-11-06T08:04:13.414Z,95.57
2022-11-06T08:05:13.414Z,95.57
2022-11-06T08:06:13.412Z,95.06
2022-11-06T08:07:13.404Z,94.55
2022-11-06T08:08:13.623Z,94.45
2022-11-06T08:09:13.399Z,94.51
2022-11-06T08:10:13.393Z,94.40
2022-11-06T08:11:13.390Z,94.61
2022-11-06T08:12:13.384Z,95.02
2022-11-06T08:13:13.387Z,94.71
2022-11-06T08:14:13.379Z,94.71
2022-11-06T08:15:13.374Z,94.30
2022-11-06T08:16:13.368Z,93.79
2022-11-06T08:17:13.387Z,93.64
2022-11-06T08:18:13.849Z,94.05
2022-11-06T08:19:13.363Z,93.85
2022-11-06T08:20:13.354Z,93.85
2022-11-06T08:21:13.359Z,93.95
2022-11-06T08:22:13.349Z,93.33
2022-11-06T08:23:13.348Z,94.05
2022-11-06T08:24:17.638Z,93.74
2022-11-06T08:25:13.340Z,93.89
2022-11-06T08:26:13.336Z,93.79
2022-11-06T08:27:13.330Z,93.44
2022-11-06T08:28:13.676Z,93.23
2022-11-06T08:29:13.324Z,93.44
2022-11-06T08:30:13.319Z,93.23
2022-11-06T08:31:13.323Z,93.54
2022-11-06T08:32:13.313Z,93.64
2022-11-06T08:33:13.331Z,94.05
2022-11-06T08:34:13.309Z,93.44
2022-11-06T08:35:13.304Z,93.13
2022-11-06T08:36:13.305Z,93.44
2022-11-06T08:37:13.295Z,93.95
2022-11-06T08:38:13.672Z,93.64
2022-11-06T08:39:13.295Z,93.74
2022-11-06T08:40:13.282Z,93.90
2022-11-06T08:41:13.280Z,94.01
2022-11-06T08:42:13.275Z,94.01
2022-11-06T08:43:13.679Z,93.80
2022-11-06T08:44:13.269Z,93.90
2022-11-06T08:45:13.270Z,93.49
2022-11-06T08:46:13.260Z,92.74
2022-11-06T08:47:13.261Z,92.78
2022-11-06T08:48:13.253Z,93.15
2022-11-06T08:49:13.270Z,93.35
2022-11-06T08:50:13.250Z,93.96
2022-11-06T08:51:13.246Z,93.45
2022-11-06T08:52:13.237Z,92.53
2022-11-06T08:53:13.578Z,92.32
2022-11-06T08:54:13.376Z,92.43
2022-11-06T08:55:13.231Z,93.45
2022-11-06T08:56:13.232Z,93.86
2022-11-06T08:57:13.227Z,93.76
2022-11-06T08:58:13.221Z,93.55
2022-11-06T08:59:13.214Z,93.66
2022-11-06T09:00:13.210Z,93.45
2022-11-06T09:01:13.300Z,93.45
2022-11-06T09:02:13.285Z,93.35
2022-11-06T09:03:13.615Z,93.76
2022-11-06T09:04:13.196Z,93.66
2022-11-06T09:05:13.213Z,93.35
2022-11-06T09:06:13.191Z,93.66
2022-11-06T09:07:13.187Z,93.35
2022-11-06T09:08:13.185Z,93.04
2022-11-06T09:09:13.182Z,93.45
2022-11-06T09:10:13.177Z,93.35
2022-11-06T09:11:13.219Z,93.20
2022-11-06T09:12:13.172Z,93.92
2022-11-06T09:13:13.652Z,93.82
2022-11-06T09:14:13.169Z,93.57
2022-11-06T09:15:13.164Z,93.26
2022-11-06T09:16:15.980Z,93.26
2022-11-06T09:17:13.154Z,93.37
2022-11-06T09:18:13.157Z,92.96
2022-11-06T09:19:13.148Z,92.71
2022-11-06T09:20:13.142Z,93.84
2022-11-06T09:21:13.166Z,93.22
2022-11-06T09:22:13.138Z,92.40
2022-11-06T09:23:13.373Z,91.89
2022-11-06T09:24:13.130Z,89.84
2022-11-06T09:25:13.126Z,89.64
2022-11-06T09:26:13.121Z,89.94
2022-11-06T09:27:13.118Z,89.33
2022-11-06T09:28:13.117Z,88.51
2022-11-06T09:29:13.112Z,89.12
2022-11-06T09:30:13.107Z,89.64
2022-11-06T09:31:13.110Z,89.03
2022-11-06T09:32:13.102Z,89.23
2022-11-06T09:33:13.949Z,89.12
2022-11-06T09:34:13.100Z,89.27
2022-11-06T09:35:13.108Z,89.37
2022-11-06T09:36:13.089Z,89.89
2022-11-06T09:37:13.204Z,90.91
2022-11-06T09:38:13.084Z,91.11
2022-11-06T09:39:13.078Z,90.86
2022-11-06T09:40:13.076Z,90.91
2022-11-06T09:41:13.073Z,91.58
2022-11-06T09:42:13.074Z,91.69
2022-11-06T09:43:13.522Z,90.77
2022-11-06T09:44:13.064Z,90.45
2022-11-06T09:45:13.058Z,90.36
2022-11-06T09:46:13.053Z,90.56
2022-11-06T09:47:13.054Z,89.84
2022-11-06T09:48:13.045Z,90.56
2022-11-06T09:49:13.045Z,90.05
2022-11-06T09:50:13.043Z,90.19
2022-11-06T09:51:13.040Z,90.25
2022-11-06T09:52:13.035Z,89.12
2022-11-06T09:53:13.178Z,89.43
2022-11-06T09:54:13.027Z,88.62
2022-11-06T09:55:13.024Z,88.65
2022-11-06T09:56:13.024Z,90.19
2022-11-06T09:57:13.019Z,90.70
2022-11-06T09:58:13.339Z,92.03
2022-11-06T09:59:13.014Z,90.91
2022-11-06T10:00:13.305Z,91.58
2022-11-06T10:01:19.530Z,92.34
2022-11-06T10:02:13.150Z,91.52
2022-11-06T10:03:13.400Z,91.93
2022-11-06T10:04:12.993Z,92.19
2022-11-06T10:05:12.994Z,91.63
2022-11-06T10:06:12.988Z,91.73
2022-11-06T10:07:12.989Z,91.93
2022-11-06T10:08:13.326Z,91.42
2022-11-06T10:09:12.997Z,90.50
2022-11-06T10:10:12.973Z,90.70
2022-11-06T10:11:12.983Z,91.01
2022-11-06T10:12:12.969Z,91.42
2022-11-06T10:13:17.230Z,92.03
2022-11-06T10:14:12.960Z,91.38
2022-11-06T10:15:12.962Z,91.58
2022-11-06T10:16:12.954Z,90.70
2022-11-06T10:17:12.951Z,89.94
2022-11-06T10:18:13.243Z,90.66
2022-11-06T10:19:12.945Z,90.05
2022-11-06T10:20:12.945Z,89.94
2022-11-06T10:21:12.946Z,90.86
2022-11-06T10:22:12.937Z,92.30
2022-11-06T10:23:12.932Z,92.10
2022-11-06T10:24:12.927Z,91.38
2022-11-06T10:25:12.947Z,90.97
2022-11-06T10:26:12.923Z,90.86
2022-11-06T10:27:12.922Z,91.17
2022-11-06T10:28:13.203Z,91.38
2022-11-06T10:29:12.926Z,90.72
2022-11-06T10:30:12.914Z,91.99
2022-11-06T10:31:12.927Z,92.25
2022-11-06T10:32:12.906Z,91.38
2022-11-06T10:33:12.903Z,91.99
2022-11-06T10:34:12.897Z,92.05
2022-11-06T10:35:12.898Z,91.23
2022-11-06T10:36:12.892Z,92.15
2022-11-06T10:37:12.891Z,90.21
2022-11-06T10:38:13.276Z,90.05
2022-11-06T10:39:12.887Z,90.41
2022-11-06T10:40:12.877Z,90.52
2022-11-06T10:41:12.896Z,90.45
2022-11-06T10:42:12.873Z,88.82
2022-11-06T10:43:12.873Z,90.66
2022-11-06T10:44:12.866Z,90.41
2022-11-06T10:45:12.865Z,90.41
2022-11-06T10:46:12.862Z,88.98
2022-11-06T10:47:12.860Z,89.18
2022-11-06T10:48:13.193Z,89.90
2022-11-06T10:49:12.850Z,90.21
2022-11-06T10:50:12.846Z,90.66
2022-11-06T10:51:12.847Z,90.52
2022-11-06T10:52:12.841Z,90.52
2022-11-06T10:53:12.838Z,89.80
2022-11-06T10:54:12.840Z,88.88
2022-11-06T10:55:12.833Z,89.50
2022-11-06T10:56:15.792Z,90.31
2022-11-06T10:57:12.858Z,90.62
2022-11-06T10:58:13.223Z,88.88
2022-11-06T10:59:12.825Z,88.37
2022-11-06T11:00:12.814Z,89.50
2022-11-06T11:01:12.854Z,90.00
2022-11-06T11:02:12.858Z,88.37
2022-11-06T11:03:12.810Z,88.06
2022-11-06T11:04:12.802Z,89.33
2022-11-06T11:05:12.806Z,89.09
2022-11-06T11:06:12.801Z,89.03
2022-11-06T11:07:16.374Z,89.23
2022-11-06T11:08:13.073Z,89.29
2022-11-06T11:09:12.793Z,89.09
2022-11-06T11:10:12.787Z,89.09
2022-11-06T11:11:12.783Z,88.78
2022-11-06T11:12:12.785Z,89.09
2022-11-06T11:13:12.793Z,89.29
2022-11-06T11:14:12.772Z,88.37
2022-11-06T11:15:12.784Z,87.79
2022-11-06T11:16:12.766Z,88.41
2022-11-06T11:17:12.768Z,88.41
2022-11-06T11:18:13.377Z,89.23
2022-11-06T11:19:12.762Z,88.68
2022-11-06T11:20:12.766Z,88.41
2022-11-06T11:21:12.750Z,88.51
2022-11-06T11:22:12.745Z,88.47
2022-11-06T11:23:12.802Z,88.37
2022-11-06T11:24:12.743Z,88.98
2022-11-06T11:25:12.741Z,88.31
2022-11-06T11:26:12.749Z,88.47
2022-11-06T11:27:12.743Z,88.47
2022-11-06T11:28:12.840Z,88.06
2022-11-06T11:29:12.762Z,87.76
2022-11-06T11:30:12.724Z,87.90
2022-11-06T11:31:12.721Z,89.29
2022-11-06T11:32:12.718Z,88.71
2022-11-06T11:33:12.714Z,89.18
2022-11-06T11:34:12.717Z,89.59
2022-11-06T11:35:12.708Z,89.90
2022-11-06T11:36:12.702Z,89.80
2022-11-06T11:37:12.704Z,90.31
2022-11-06T11:38:13.061Z,90.21
2022-11-06T11:39:12.694Z,90.52
2022-11-06T11:40:13.588Z,89.59
2022-11-06T11:41:12.690Z,89.23
2022-11-06T11:42:12.691Z,88.37
2022-11-06T11:43:12.685Z,88.00
2022-11-06T11:44:12.683Z,87.49
2022-11-06T11:45:12.692Z,86.98
2022-11-06T11:46:12.680Z,88.31
2022-11-06T11:47:12.670Z,89.29
2022-11-06T11:48:13.070Z,89.29
2022-11-06T11:49:12.662Z,88.41
2022-11-06T11:50:12.661Z,89.23
2022-11-06T11:51:12.677Z,88.68
2022-11-06T11:52:12.657Z,88.31
2022-11-06T11:53:12.650Z,88.47
2022-11-06T11:54:12.652Z,88.37
2022-11-06T11:55:12.644Z,88.47
2022-11-06T11:56:12.650Z,88.17
2022-11-06T11:57:12.639Z,88.20
2022-11-06T11:58:13.017Z,88.57
2022-11-06T11:59:12.631Z,89.12
2022-11-06T12:00:12.638Z,88.47
2022-11-06T12:01:12.649Z,88.17
2022-11-06T12:02:12.919Z,87.96
2022-11-06T12:03:12.823Z,88.37
2022-11-06T12:04:12.621Z,89.18
2022-11-06T12:05:12.615Z,88.17
2022-11-06T12:06:12.623Z,89.29
2022-11-06T12:07:12.611Z,88.98
2022-11-06T12:08:13.026Z,88.98
2022-11-06T12:09:12.603Z,89.80
2022-11-06T12:10:12.599Z,88.37
2022-11-06T12:11:12.593Z,89.29
2022-11-06T12:12:12.594Z,88.47
2022-11-06T12:13:12.587Z,88.57
2022-11-06T12:14:12.584Z,89.03
2022-11-06T12:15:12.582Z,88.06
2022-11-06T12:16:12.579Z,87.45
2022-11-06T12:17:12.595Z,87.85
2022-11-06T12:18:12.886Z,88.37
2022-11-06T12:19:12.569Z,88.47
2022-11-06T12:20:12.569Z,87.85
2022-11-06T12:21:12.562Z,88.06
2022-11-06T12:22:12.562Z,88.20
2022-11-06T12:23:12.559Z,87.96
2022-11-06T12:24:12.553Z,88.37
2022-11-06T12:25:12.549Z,88.17
2022-11-06T12:26:12.553Z,88.17
2022-11-06T12:27:12.552Z,88.06
2022-11-06T12:28:12.965Z,87.85
2022-11-06T12:29:12.542Z,87.76
2022-11-06T12:30:12.537Z,87.24
2022-11-06T12:31:12.537Z,87.55
2022-11-06T12:32:12.536Z,87.96
2022-11-06T12:33:12.668Z,88.57
2022-11-06T12:34:17.233Z,87.96
2022-11-06T12:35:12.519Z,87.49
2022-11-06T12:36:12.518Z,87.59
2022-11-06T12:37:12.514Z,88.17
2022-11-06T12:38:12.945Z,88.17
2022-11-06T12:39:12.507Z,87.90
2022-11-06T12:40:12.506Z,86.63
2022-11-06T12:41:12.508Z,87.38
2022-11-06T12:42:12.500Z,87.35
2022-11-06T12:43:12.493Z,86.63
2022-11-06T12:44:12.491Z,86.67
2022-11-06T12:45:12.490Z,86.63
2022-11-06T12:46:12.485Z,86.73
2022-11-06T12:47:12.492Z,86.57
2022-11-06T12:48:12.795Z,86.73
2022-11-06T12:49:12.494Z,87.08
2022-11-06T12:50:12.476Z,86.05
2022-11-06T12:51:12.499Z,86.32
2022-11-06T12:52:12.468Z,86.22